Time;durP1;ratioP1;P1;durP2;ratioP2;P2;SDS_P1;SDS_P2;PMS_P1;PMS_P2;Temp;Humidity;BMP_temperature;BMP_pressure;BME280_temperature;BME280_humidity;BME280_pressure;Samples;Min_cycle;Max_cycle;Signal;HPM_P1;HPM_P2
2021/12/24 00:00:17;;;;;;;85.30;21.27;;;;;;;0.06;100.00;97236.31;5088962;28;20664;-63
2021/12/24 00:02:45;;;;;;;75.20;20.80;;;;;;;0.08;100.00;97231.66;5087973;28;20669;-63
2021/12/24 00:05:12;;;;;;;71.60;19.70;;;;;;;0.08;100.00;97227.22;5088931;28;20594;-62
2021/12/24 00:07:39;;;;;;;70.27;16.50;;;;;;;0.10;100.00;97219.09;5088701;28;20602;-63
2021/12/24 00:10:09;;;;;;;78.47;20.57;;;;;;;0.13;100.00;97221.31;5088896;28;20610;-62
2021/12/24 00:12:39;;;;;;;64.30;16.43;;;;;;;0.19;100.00;97220.44;5088812;28;20609;-62
2021/12/24 00:15:21;;;;;;;75.20;16.60;;;;;;;0.16;100.00;97210.38;5088933;28;20635;-62
2021/12/24 00:17:49;;;;;;;67.00;16.77;;;;;;;0.13;100.00;97200.31;5080632;28;20606;-62
2021/12/24 00:20:42;;;;;;;79.87;21.13;;;;;;;0.22;100.00;97193.75;5089043;28;20649;-63
2021/12/24 00:36:48;;;;;;;58.67;16.63;;;;;;;0.23;100.00;97179.63;5084249;28;20597;-62
2021/12/24 00:39:14;;;;;;;45.53;19.20;;;;;;;0.19;100.00;97162.69;5092538;28;20629;-62
2021/12/24 00:41:41;;;;;;;73.50;21.27;;;;;;;0.25;100.00;97170.50;5092337;28;20629;-63
2021/12/24 00:44:08;;;;;;;84.80;18.70;;;;;;;0.23;100.00;97163.88;5092349;28;20643;-63
2021/12/24 00:46:35;;;;;;;52.07;15.97;;;;;;;0.25;100.00;97154.75;5092034;28;20610;-62
2021/12/24 00:49:05;;;;;;;52.50;15.60;;;;;;;0.28;100.00;97156.16;5092262;28;20620;-62
2021/12/24 00:51:53;;;;;;;60.70;18.57;;;;;;;0.23;100.00;97148.13;5092014;28;20619;-62
2021/12/24 00:57:03;;;;;;;53.40;19.57;;;;;;;0.34;100.00;97144.78;5085922;28;20613;-63
2021/12/24 00:59:30;;;;;;;61.60;15.87;;;;;;;0.23;100.00;97142.88;5092035;28;20648;-62
2021/12/24 01:02:03;;;;;;;55.73;16.40;;;;;;;0.32;100.00;97131.06;5092008;28;20621;-63
2021/12/24 01:04:31;;;;;;;53.00;16.63;;;;;;;0.31;100.00;97132.88;5091867;28;20605;-62
2021/12/24 01:06:58;;;;;;;89.50;19.33;;;;;;;0.38;100.00;97132.81;5091724;28;20724;-63
2021/12/24 01:09:24;;;;;;;87.73;18.60;;;;;;;0.37;100.00;97129.38;5091908;28;20672;-62
2021/12/24 01:11:51;;;;;;;50.60;17.93;;;;;;;0.37;100.00;97121.50;5091897;28;20609;-62
2021/12/24 01:14:18;;;;;;;54.27;14.77;;;;;;;0.38;100.00;97130.19;5091630;28;21005;-62
2021/12/24 01:16:52;;;;;;;66.00;17.07;;;;;;;0.45;100.00;97117.81;5091808;28;20612;-62
2021/12/24 01:19:22;;;;;;;58.83;16.93;;;;;;;0.50;100.00;97113.50;5091706;28;20716;-63
2021/12/24 01:22:13;;;;;;;69.70;19.27;;;;;;;0.47;100.00;97113.13;5082299;28;20617;-62
2021/12/24 01:24:49;;;;;;;67.47;16.13;;;;;;;0.58;100.00;97115.03;5090454;28;20636;-62
2021/12/24 01:27:24;;;;;;;48.53;16.43;;;;;;;0.52;100.00;97108.03;5091513;28;20617;-63
2021/12/24 01:30:00;;;;;;;50.47;18.47;;;;;;;0.63;100.00;97112.56;5083378;28;20605;-62
2021/12/24 01:38:09;;;;;;;73.37;17.97;;;;;;;0.56;100.00;97096.06;5083996;28;20610;-63
2021/12/24 01:40:51;;;;;;;75.53;17.50;;;;;;;0.62;100.00;97086.50;5091197;28;20683;-62
2021/12/24 01:43:17;;;;;;;52.23;15.60;;;;;;;0.59;100.00;97089.59;5091021;28;20624;-62
2021/12/24 01:45:48;;;;;;;83.03;18.37;;;;;;;0.59;100.00;97092.97;5091001;28;21076;-62
2021/12/24 01:48:15;;;;;;;63.73;19.27;;;;;;;0.61;100.00;97088.34;5091012;28;20297;-61
2021/12/24 01:50:43;;;;;;;66.80;16.73;;;;;;;0.66;100.00;97085.84;5090779;28;20670;-62
2021/12/24 01:53:11;;;;;;;83.80;18.63;;;;;;;0.74;100.00;97082.13;5095746;28;20683;-61
2021/12/24 01:55:39;;;;;;;85.10;18.50;;;;;;;0.70;100.00;97089.63;5091926;28;20597;-62
2021/12/24 01:58:06;;;;;;;53.90;17.37;;;;;;;0.79;100.00;97088.31;5091068;28;20605;-63
2021/12/24 02:00:36;;;;;;;50.33;13.53;;;;;;;0.77;100.00;97093.00;5090693;28;20672;-62
2021/12/24 02:03:04;;;;;;;50.33;16.10;;;;;;;0.76;100.00;97093.19;5090665;28;20737;-62
2021/12/24 02:05:32;;;;;;;68.17;15.93;;;;;;;0.73;100.00;97091.00;5090754;28;21444;-62
2021/12/24 02:07:59;;;;;;;64.90;19.23;;;;;;;0.76;100.00;97106.34;5090602;28;20677;-62
2021/12/24 02:10:27;;;;;;;51.83;17.17;;;;;;;0.77;100.00;97103.50;5090589;28;20605;-62
2021/12/24 02:12:54;;;;;;;43.97;13.50;;;;;;;0.72;100.00;97100.72;5090665;28;20671;-62
2021/12/24 02:15:29;;;;;;;52.47;14.50;;;;;;;0.77;100.00;97107.97;5090525;28;20624;-62
2021/12/24 02:18:36;;;;;;;46.83;15.23;;;;;;;0.72;100.00;97095.47;5083423;28;20628;-62
2021/12/24 02:29:17;;;;;;;58.17;16.20;;;;;;;0.77;100.00;97082.47;5090523;28;20625;-62
2021/12/24 02:31:44;;;;;;;71.60;18.50;;;;;;;0.88;100.00;97071.22;5090242;28;20606;-62
2021/12/24 02:34:11;;;;;;;82.93;16.40;;;;;;;0.82;100.00;97066.84;5090278;28;20689;-62
2021/12/24 02:36:39;;;;;;;90.63;19.70;;;;;;;0.77;100.00;97061.47;5090327;28;20612;-61
2021/12/24 02:39:06;;;;;;;48.73;17.20;;;;;;;0.77;100.00;97060.66;5090357;28;20589;-62
2021/12/24 02:41:33;;;;;;;53.43;20.50;;;;;;;0.85;100.00;97052.44;5090208;28;20649;-62
2021/12/24 02:44:00;;;;;;;47.40;16.10;;;;;;;0.79;100.00;97045.47;5089780;28;20648;-62
2021/12/24 02:46:32;;;;;;;70.10;18.37;;;;;;;0.82;100.00;97034.50;5089982;28;20621;-62
2021/12/24 02:49:11;;;;;;;73.03;18.67;;;;;;;0.85;100.00;97044.56;5089928;28;20632;-63
2021/12/24 02:54:35;;;;;;;86.57;21.13;;;;;;;0.85;100.00;97039.31;5067430;28;20634;-62
2021/12/24 02:57:08;;;;;;;58.47;18.20;;;;;;;0.83;100.00;97042.19;5082774;28;20643;-62
2021/12/24 02:59:44;;;;;;;64.47;17.13;;;;;;;0.95;100.00;97036.97;5089718;28;20640;-62
2021/12/24 03:02:11;;;;;;;59.17;16.13;;;;;;;0.94;100.00;97032.72;5089815;28;20616;-61
2021/12/24 03:04:37;;;;;;;98.97;19.07;;;;;;;0.90;100.00;97037.63;5089565;28;20685;-62
2021/12/24 03:07:06;;;;;;;77.50;18.70;;;;;;;0.86;100.00;97033.84;5089801;28;21451;-62
2021/12/24 03:09:32;;;;;;;55.67;16.47;;;;;;;0.96;100.00;97034.09;5089732;28;20590;-63
2021/12/24 03:11:59;;;;;;;63.03;17.17;;;;;;;0.99;100.00;97028.38;5089716;28;20647;-62
2021/12/24 03:14:26;;;;;;;79.37;17.67;;;;;;;1.00;100.00;97016.06;5089432;28;20625;-61
2021/12/24 03:16:57;;;;;;;94.80;18.30;;;;;;;1.13;100.00;97018.50;5088667;28;20610;-62
2021/12/24 03:19:28;;;;;;;65.33;16.07;;;;;;;1.16;100.00;97020.69;5089546;28;20617;-61
2021/12/24 03:21:58;;;;;;;65.13;17.53;;;;;;;1.20;100.00;97026.28;5089415;28;20641;-62
2021/12/24 03:24:35;;;;;;;66.67;16.90;;;;;;;1.23;100.00;97018.75;5089298;28;20605;-62
2021/12/24 03:27:04;;;;;;;72.03;14.70;;;;;;;1.26;100.00;97004.34;5089514;28;20601;-62
2021/12/24 03:29:30;;;;;;;87.43;19.30;;;;;;;1.36;100.00;97013.28;5089524;28;20625;-62
2021/12/24 03:31:58;;;;;;;66.20;17.70;;;;;;;1.35;100.00;97008.25;5089337;28;20838;-62
2021/12/24 03:34:25;;;;;;;57.83;15.07;;;;;;;1.35;100.00;97003.81;5089633;28;20610;-63
2021/12/24 03:36:52;;;;;;;45.60;14.33;;;;;;;1.37;100.00;96993.84;5089628;28;20633;-62
2021/12/24 03:39:19;;;;;;;53.43;17.77;;;;;;;1.40;100.00;97003.91;5089618;28;20644;-63
2021/12/24 03:41:47;;;;;;;40.80;16.20;;;;;;;1.36;100.00;97001.97;5089524;28;20671;-62
2021/12/24 03:44:16;;;;;;;45.83;18.40;;;;;;;1.45;100.00;97011.13;5089397;28;20618;-63
2021/12/24 03:46:53;;;;;;;68.90;18.63;;;;;;;1.48;100.00;96995.69;5089463;28;20634;-62
2021/12/24 03:49:30;;;;;;;86.13;16.90;;;;;;;1.43;100.00;96998.19;5089505;28;20663;-62
2021/12/24 03:52:03;;;;;;;57.83;15.80;;;;;;;1.42;100.00;96999.25;5082120;28;20613;-63
2021/12/24 03:57:15;;;;;;;45.30;14.57;;;;;;;1.53;100.00;96982.66;5092735;28;20613;-63
2021/12/24 03:59:42;;;;;;;64.37;17.70;;;;;;;1.29;100.00;96975.78;5093264;28;20609;-62
2021/12/24 04:02:09;;;;;;;67.17;17.83;;;;;;;1.53;100.00;96976.59;5092783;28;20674;-63
2021/12/24 04:04:35;;;;;;;103.70;18.30;;;;;;;1.56;100.00;96965.59;5092954;28;20637;-63
2021/12/24 04:07:02;;;;;;;49.47;14.30;;;;;;;1.59;100.00;96970.41;5092911;28;20640;-61
2021/12/24 04:09:30;;;;;;;41.90;16.37;;;;;;;1.64;100.00;96967.88;5092952;28;20613;-62
2021/12/24 04:11:57;;;;;;;48.03;13.33;;;;;;;1.65;100.00;96966.84;5093154;28;20724;-62
2021/12/24 04:14:25;;;;;;;58.67;15.57;;;;;;;1.71;100.00;96965.94;5093044;28;21411;-63
2021/12/24 04:16:52;;;;;;;44.97;14.90;;;;;;;1.64;100.00;96968.69;5092963;28;21202;-62
2021/12/24 04:19:35;;;;;;;54.57;16.30;;;;;;;1.75;100.00;96969.72;5093036;28;20614;-62
2021/12/24 04:24:53;;;;;;;48.60;15.80;;;;;;;1.68;100.00;96957.69;5092496;28;20620;-62
2021/12/24 04:27:21;;;;;;;74.57;14.53;;;;;;;1.58;100.00;96960.91;5092688;28;20618;-62
2021/12/24 04:29:49;;;;;;;57.13;15.00;;;;;;;1.64;100.00;96952.09;5092718;28;20616;-62
2021/12/24 04:32:19;;;;;;;55.57;16.77;;;;;;;1.80;100.00;96951.41;5092713;28;20616;-62
2021/12/24 04:34:49;;;;;;;50.13;15.73;;;;;;;1.72;100.00;96946.50;5092601;28;21009;-62
2021/12/24 05:01:52;;;;;;;66.00;15.70;;;;;;;1.97;100.00;96954.13;5091987;28;20648;-62
2021/12/24 05:04:25;;;;;;;79.03;15.60;;;;;;;1.70;100.00;96953.84;5092222;28;20613;-62
2021/12/24 05:06:58;;;;;;;56.40;14.83;;;;;;;1.88;100.00;96945.81;5083312;28;20620;-62
2021/12/24 05:09:25;;;;;;;79.33;16.43;;;;;;;1.83;100.00;96945.69;5091620;28;20620;-62
2021/12/24 05:11:52;;;;;;;78.27;17.27;;;;;;;1.87;100.00;96938.94;5092027;28;20637;-62
2021/12/24 05:14:19;;;;;;;72.40;16.07;;;;;;;1.83;100.00;96939.59;5091934;28;20602;-62
2021/12/24 05:16:49;;;;;;;70.63;16.33;;;;;;;1.96;100.00;96945.44;5091627;28;20617;-62
2021/12/24 05:22:00;;;;;;;53.53;13.53;;;;;;;1.93;100.00;96950.34;5085039;28;20649;-63
2021/12/24 05:24:30;;;;;;;103.47;17.60;;;;;;;1.97;100.00;96954.94;5091615;28;20621;-62
2021/12/24 05:26:59;;;;;;;49.53;15.00;;;;;;;1.95;100.00;96954.34;5091577;28;20604;-62
2021/12/24 05:29:26;;;;;;;59.67;18.13;;;;;;;2.04;100.00;96950.34;5091411;28;20628;-62
2021/12/24 05:31:55;;;;;;;57.33;15.20;;;;;;;2.04;100.00;96946.91;5089088;28;20651;-62
2021/12/24 05:34:22;;;;;;;72.47;15.83;;;;;;;2.13;100.00;96941.06;5090477;28;20635;-62
2021/12/24 05:36:50;;;;;;;76.73;16.47;;;;;;;2.16;100.00;96947.69;5091201;28;20597;-62
2021/12/24 05:39:18;;;;;;;57.67;15.43;;;;;;;2.16;100.00;96939.78;5091480;28;20605;-63
2021/12/24 05:41:45;;;;;;;65.30;17.37;;;;;;;2.31;100.00;96934.00;5091212;28;20702;-62
2021/12/24 05:44:15;;;;;;;75.13;15.90;;;;;;;2.35;100.00;96937.78;5090819;28;20613;-62
2021/12/24 05:46:42;;;;;;;61.00;15.10;;;;;;;2.28;100.00;96937.13;5091120;28;20593;-62
2021/12/24 05:49:10;;;;;;;44.30;13.20;;;;;;;2.28;100.00;96937.13;5090751;28;20594;-62
2021/12/24 05:51:37;;;;;;;97.40;16.20;;;;;;;2.32;100.00;96931.13;5090766;28;20647;-61
2021/12/24 05:54:04;;;;;;;67.23;14.97;;;;;;;2.28;100.00;96937.13;5090614;28;21171;-62
2021/12/24 05:56:31;;;;;;;61.60;12.73;;;;;;;2.35;100.00;96921.97;5090866;28;20598;-62
2021/12/24 05:58:57;;;;;;;70.80;18.00;;;;;;;2.32;100.00;96927.72;5090668;28;20602;-62
2021/12/24 06:01:24;;;;;;;70.73;16.77;;;;;;;2.33;100.00;96932.75;5090689;28;20645;-63
2021/12/24 06:03:51;;;;;;;42.20;12.83;;;;;;;2.32;100.00;96933.75;5090639;28;20616;-62
2021/12/24 06:06:19;;;;;;;71.70;14.57;;;;;;;2.19;100.00;96928.78;5090704;28;20597;-63
2021/12/24 06:08:46;;;;;;;98.10;17.57;;;;;;;2.23;100.00;96929.13;5090713;28;20617;-63
2021/12/24 06:11:12;;;;;;;59.67;14.50;;;;;;;2.13;100.00;96925.25;5090747;28;21203;-63
2021/12/24 06:13:39;;;;;;;83.40;16.73;;;;;;;2.17;100.00;96931.66;5090558;28;20668;-62
2021/12/24 06:16:07;;;;;;;56.07;15.80;;;;;;;2.28;100.00;96926.59;5090381;28;20593;-63
2021/12/24 06:18:38;;;;;;;56.03;13.60;;;;;;;2.30;100.00;96927.13;5089724;28;20673;-62
2021/12/24 06:21:05;;;;;;;72.10;16.13;;;;;;;2.41;100.00;96931.59;5090103;28;20703;-61
2021/12/24 06:23:34;;;;;;;48.63;13.10;;;;;;;2.48;100.00;96940.13;5088944;28;20618;-62
2021/12/24 06:26:02;;;;;;;45.67;13.40;;;;;;;2.22;100.00;96933.59;5090170;28;20610;-62
2021/12/24 06:28:29;;;;;;;78.83;13.83;;;;;;;2.46;100.00;96935.09;5090114;28;20639;-62
2021/12/24 06:30:56;;;;;;;70.63;15.00;;;;;;;2.48;100.00;96937.50;5090200;28;20605;-62
2021/12/24 06:33:23;;;;;;;85.47;15.97;;;;;;;2.43;100.00;96940.03;5090138;28;20607;-62
2021/12/24 06:35:50;;;;;;;45.40;12.90;;;;;;;2.42;100.00;96946.34;5082047;28;20610;-62
2021/12/24 06:38:17;;;;;;;55.73;13.87;;;;;;;2.53;100.00;96946.31;5089869;28;20648;-62
2021/12/24 06:40:45;;;;;;;51.93;15.47;;;;;;;2.42;100.00;96946.34;5089873;28;20620;-62
2021/12/24 06:43:12;;;;;;;65.40;15.10;;;;;;;2.30;100.00;96950.84;5089869;28;20629;-62
2021/12/24 06:45:38;;;;;;;94.00;16.50;;;;;;;2.31;100.00;96953.25;5089811;28;20618;-62
2021/12/24 06:48:06;;;;;;;54.67;14.33;;;;;;;2.06;100.00;96945.66;5089706;28;20602;-63
2021/12/24 06:50:34;;;;;;;83.27;14.50;;;;;;;2.19;100.00;96949.88;5085741;28;20613;-62
2021/12/24 06:53:01;;;;;;;59.63;15.80;;;;;;;2.24;100.00;96939.41;5085090;28;20617;-63
2021/12/24 06:55:29;;;;;;;40.40;14.10;;;;;;;2.35;100.00;96946.50;5085368;28;20717;-63
2021/12/24 06:57:58;;;;;;;72.97;14.47;;;;;;;2.46;100.00;96939.56;5087493;28;20625;-62
2021/12/24 07:00:26;;;;;;;105.93;17.60;;;;;;;2.44;100.00;96952.19;5086196;28;20693;-61
2021/12/24 07:02:53;;;;;;;98.50;16.70;;;;;;;2.29;100.00;96959.81;5084890;28;20737;-63
2021/12/24 07:05:21;;;;;;;71.67;15.87;;;;;;;2.38;100.00;96953.13;5089631;28;20632;-62
2021/12/24 07:07:48;;;;;;;87.43;17.10;;;;;;;2.44;100.00;96953.00;5089484;28;20667;-63
2021/12/24 07:10:15;;;;;;;67.70;14.30;;;;;;;2.39;100.00;96957.34;5087399;28;20616;-63
2021/12/24 07:12:42;;;;;;;96.73;15.53;;;;;;;2.48;100.00;96969.13;5087730;28;20609;-62
2021/12/24 07:15:11;;;;;;;76.67;13.80;;;;;;;2.60;100.00;96969.91;5086861;28;20613;-62
2021/12/24 07:17:38;;;;;;;59.43;14.20;;;;;;;2.54;100.00;96973.44;5089448;28;20602;-62
2021/12/24 07:20:05;;;;;;;103.23;16.83;;;;;;;2.27;100.00;96977.66;5087546;28;20610;-62
2021/12/24 07:22:32;;;;;;;84.90;14.60;;;;;;;2.43;100.00;96987.47;5089290;28;20653;-62
2021/12/24 07:24:59;;;;;;;131.00;16.60;;;;;;;2.08;100.00;96990.97;5088208;28;20598;-62
2021/12/24 07:27:33;;;;;;;97.80;16.53;;;;;;;2.30;100.00;96993.00;5089235;28;20601;-62
2021/12/24 07:29:59;;;;;;;101.20;17.63;;;;;;;2.32;100.00;96997.00;5088921;28;20602;-62
2021/12/24 07:32:27;;;;;;;87.73;15.27;;;;;;;2.39;100.00;96995.03;5089076;28;20609;-61
2021/12/24 07:34:54;;;;;;;71.57;15.20;;;;;;;2.58;100.00;96988.56;5089094;28;20598;-63
2021/12/24 07:37:20;;;;;;;75.17;14.17;;;;;;;2.50;100.00;96994.22;5089096;28;20610;-62
2021/12/24 07:39:50;;;;;;;105.63;15.53;;;;;;;2.33;100.00;96984.63;5084855;28;20663;-62
2021/12/24 07:42:17;;;;;;;58.53;13.73;;;;;;;2.11;100.00;96966.81;5088104;28;20678;-64
2021/12/24 07:44:43;;;;;;;57.70;15.00;;;;;;;2.34;100.00;96976.50;5089121;28;20619;-62
2021/12/24 07:47:16;;;;;;;68.97;14.07;;;;;;;2.49;100.00;96966.25;5089033;28;20602;-62
2021/12/24 07:49:48;;;;;;;64.50;13.70;;;;;;;2.48;100.00;96974.38;5089117;28;20609;-63
2021/12/24 07:52:15;;;;;;;73.90;16.20;;;;;;;2.57;100.00;96973.78;5088842;28;20601;-63
2021/12/24 07:54:44;;;;;;;60.93;13.43;;;;;;;2.65;100.00;96977.88;5088725;28;20605;-62
2021/12/24 07:57:13;;;;;;;55.97;13.73;;;;;;;2.67;100.00;96973.16;5088856;28;20712;-62
2021/12/24 07:59:42;;;;;;;73.43;15.07;;;;;;;2.38;100.00;96974.22;5088959;28;20594;-62
2021/12/24 08:02:11;;;;;;;80.33;15.33;;;;;;;2.39;100.00;96968.69;5088834;28;20645;-62
2021/12/24 08:04:39;;;;;;;48.17;12.50;;;;;;;2.38;100.00;96968.94;5088848;28;20598;-63
2021/12/24 08:07:08;;;;;;;80.17;13.60;;;;;;;2.57;100.00;96967.69;5088703;28;20689;-62
2021/12/24 08:09:37;;;;;;;81.50;14.73;;;;;;;2.62;100.00;96971.25;5088786;28;20731;-63
2021/12/24 08:12:05;;;;;;;84.20;15.20;;;;;;;2.32;100.00;96969.88;5088504;28;20644;-62
2021/12/24 08:14:35;;;;;;;94.70;15.57;;;;;;;2.57;100.00;96978.25;5088775;28;20596;-62
2021/12/24 08:17:04;;;;;;;92.77;14.33;;;;;;;2.66;100.00;96984.78;5088659;28;20658;-63
2021/12/24 08:19:31;;;;;;;71.27;14.83;;;;;;;2.73;100.00;96993.31;5088677;28;21400;-63
2021/12/24 08:21:58;;;;;;;91.77;18.50;;;;;;;2.75;100.00;96986.00;5088518;28;20657;-62
2021/12/24 08:24:26;;;;;;;67.87;13.80;;;;;;;2.58;100.00;96971.94;5088440;28;20640;-63
2021/12/24 08:26:53;;;;;;;68.23;15.53;;;;;;;2.70;100.00;96975.34;5088488;28;20606;-62
2021/12/24 08:29:21;;;;;;;47.37;13.83;;;;;;;2.69;100.00;96968.47;5088833;28;20597;-63
2021/12/24 08:31:48;;;;;;;98.30;17.07;;;;;;;2.68;100.00;96970.31;5088514;28;20606;-62
2021/12/24 08:34:17;;;;;;;59.60;16.77;;;;;;;2.82;100.00;96973.44;5088602;28;20628;-62
2021/12/24 08:36:44;;;;;;;82.83;17.53;;;;;;;3.02;100.00;96973.81;5088360;28;20615;-62
2021/12/24 08:39:10;;;;;;;76.43;15.87;;;;;;;2.94;100.00;96968.91;5088382;28;20696;-62
2021/12/24 08:41:38;;;;;;;68.07;15.30;;;;;;;2.66;100.00;96955.78;5088810;28;20653;-62
2021/12/24 08:44:05;;;;;;;65.53;14.43;;;;;;;2.95;100.00;96954.69;5092031;28;20666;-62
2021/12/24 08:46:33;;;;;;;53.67;15.53;;;;;;;2.95;100.00;96954.69;5092249;28;20605;-62
2021/12/24 08:48:59;;;;;;;90.53;17.03;;;;;;;2.96;100.00;96968.69;5091874;28;20609;-62
2021/12/24 08:51:26;;;;;;;83.50;20.10;;;;;;;2.98;100.00;96962.13;5091996;28;20609;-63
2021/12/24 08:53:52;;;;;;;84.10;17.50;;;;;;;3.23;100.00;96956.50;5091684;28;20601;-63
2021/12/24 08:56:19;;;;;;;75.17;15.90;;;;;;;3.03;100.00;96958.81;5091864;28;20605;-63
2021/12/24 08:58:47;;;;;;;83.83;18.20;;;;;;;3.31;100.00;96964.03;5091815;28;20612;-62
2021/12/24 09:01:13;;;;;;;62.03;15.13;;;;;;;3.04;100.00;96949.84;5091762;28;20585;-63
2021/12/24 09:03:40;;;;;;;75.67;15.30;;;;;;;2.62;100.00;96944.91;5091739;28;20597;-63
2021/12/24 09:06:07;;;;;;;62.27;15.30;;;;;;;3.11;100.00;96943.38;5091649;28;20636;-62
2021/12/24 09:08:34;;;;;;;138.93;16.70;;;;;;;2.82;100.00;96943.63;5091618;28;20621;-63
2021/12/24 09:11:01;;;;;;;79.87;13.07;;;;;;;3.08;100.00;96954.41;5091633;28;20690;-62
2021/12/24 09:13:27;;;;;;;97.70;20.37;;;;;;;3.33;100.00;96947.94;5091392;28;20680;-63
2021/12/24 09:15:55;;;;;;;55.10;15.60;;;;;;;3.36;100.00;96947.47;5091552;28;20639;-63
2021/12/24 09:18:22;;;;;;;74.83;14.57;;;;;;;2.88;100.00;96954.03;5091621;28;20609;-63
2021/12/24 09:20:49;;;;;;;57.50;13.53;;;;;;;3.00;100.00;96952.13;5091440;28;20593;-63
2021/12/24 09:23:18;;;;;;;53.17;11.87;;;;;;;2.88;100.00;96948.78;5090081;28;20681;-62
2021/12/24 09:25:44;;;;;;;71.00;11.37;;;;;;;2.68;100.00;96940.53;5091351;28;20617;-63
2021/12/24 09:28:12;;;;;;;71.17;10.67;;;;;;;3.23;100.00;96936.19;5090819;28;21379;-62
2021/12/24 09:30:38;;;;;;;86.60;12.20;;;;;;;3.63;100.00;96932.56;5090976;28;20679;-63
2021/12/24 09:33:06;;;;;;;97.77;12.47;;;;;;;4.00;100.00;96925.66;5090862;28;20597;-63
2021/12/24 09:35:34;;;;;;;88.10;10.47;;;;;;;4.27;100.00;96936.31;5090979;28;20963;-63
2021/12/24 09:38:02;;;;;;;86.23;11.90;;;;;;;4.42;100.00;96941.78;5090946;28;20605;-62
2021/12/24 09:40:30;;;;;;;81.63;10.30;;;;;;;4.56;100.00;96937.69;5091036;28;20635;-63
2021/12/24 09:42:58;;;;;;;62.33;8.70;;;;;;;4.76;100.00;96942.41;5090649;28;20736;-62
2021/12/24 09:45:24;;;;;;;69.07;8.00;;;;;;;4.83;100.00;96938.50;5090781;28;20610;-63
2021/12/24 09:47:51;;;;;;;71.73;8.90;;;;;;;4.86;100.00;96923.97;5090943;28;20608;-62
2021/12/24 09:50:22;;;;;;;95.10;9.97;;;;;;;4.34;100.00;96921.06;5090709;28;20601;-62
2021/12/24 09:52:50;;;;;;;89.03;9.03;;;;;;;4.16;100.00;96914.25;5090363;28;20643;-63
2021/12/24 09:55:20;;;;;;;73.93;7.10;;;;;;;4.39;100.00;96912.41;5090183;28;20635;-62
2021/12/24 09:57:47;;;;;;;91.67;9.40;;;;;;;4.16;100.00;96914.25;5090642;28;20616;-63
2021/12/24 10:00:17;;;;;;;62.80;8.07;;;;;;;4.54;100.00;96912.56;5090445;28;20594;-63
2021/12/24 10:02:46;;;;;;;71.30;8.90;;;;;;;4.53;100.00;96914.41;5090433;28;20668;-63
2021/12/24 10:05:30;;;;;;;76.20;8.40;;;;;;;4.79;100.00;96912.81;5090371;28;20627;-62
2021/12/24 10:08:06;;;;;;;73.70;8.13;;;;;;;5.01;100.00;96916.19;5082892;28;20602;-63
2021/12/24 10:10:33;;;;;;;70.47;9.17;;;;;;;5.11;100.00;96923.41;5090088;28;20589;-62
2021/12/24 10:13:25;;;;;;;81.50;8.70;;;;;;;5.23;100.00;96919.53;5090330;28;20611;-62
2021/12/24 10:15:53;;;;;;;94.40;12.87;;;;;;;5.28;100.00;96922.25;5082391;28;20628;-63
2021/12/24 10:18:40;;;;;;;52.80;7.33;;;;;;;5.34;100.00;96915.94;5090118;28;20628;-63
2021/12/24 10:21:12;;;;;;;116.50;9.93;;;;;;;5.37;100.00;96914.63;5084274;28;20636;-62
2021/12/24 10:23:44;;;;;;;44.77;7.00;;;;;;;5.43;100.00;96925.00;5089940;28;20649;-63
2021/12/24 10:26:23;;;;;;;124.17;10.87;;;;;;;5.38;100.00;96922.31;5090097;28;20605;-63
2021/12/24 10:28:52;;;;;;;66.17;8.80;;;;;;;5.37;100.00;96915.44;5081865;28;20647;-62
2021/12/24 10:31:21;;;;;;;92.40;9.83;;;;;;;5.27;100.00;96925.13;5090013;28;20651;-63
2021/12/24 10:34:23;;;;;;;77.83;9.87;;;;;;;5.03;100.00;96919.38;5090076;28;20594;-62
2021/12/24 10:37:12;;;;;;;58.93;7.57;;;;;;;4.89;100.00;96918.19;5081967;28;20609;-63
2021/12/24 10:39:45;;;;;;;85.17;9.70;;;;;;;5.06;100.00;96918.88;5090221;28;20610;-63
2021/12/24 10:42:15;;;;;;;36.43;7.10;;;;;;;5.17;100.00;96917.91;5090135;28;20644;-63
2021/12/24 10:44:45;;;;;;;60.27;9.53;;;;;;;5.32;100.00;96914.59;5090201;28;20610;-62
2021/12/24 10:47:15;;;;;;;59.40;8.20;;;;;;;5.34;100.00;96917.78;5090038;28;20620;-63
2021/12/24 10:49:55;;;;;;;78.20;8.67;;;;;;;4.74;100.00;96910.09;5090127;28;20602;-63
2021/12/24 10:55:11;;;;;;;49.57;6.00;;;;;;;4.57;100.00;96907.56;5070975;28;20632;-63
2021/12/24 10:57:39;;;;;;;70.77;6.40;;;;;;;4.54;100.00;96894.06;5089719;28;20651;-62
2021/12/24 11:00:14;;;;;;;92.40;9.33;;;;;;;4.92;100.00;96901.81;5089406;28;20597;-63
2021/12/24 11:02:41;;;;;;;81.60;8.30;;;;;;;5.11;100.00;96892.44;5089292;28;20649;-64
2021/12/24 11:05:24;;;;;;;81.33;8.00;;;;;;;5.27;100.00;96893.38;5089374;28;20641;-63
2021/12/24 11:07:52;;;;;;;63.23;6.83;;;;;;;4.98;100.00;96906.13;5081330;28;20612;-63
2021/12/24 11:10:22;;;;;;;63.30;6.30;;;;;;;4.59;100.00;96896.72;5089509;28;20602;-64
2021/12/24 11:12:50;;;;;;;75.70;7.13;;;;;;;5.01;100.00;96902.16;5089331;28;20617;-64
2021/12/24 11:15:23;;;;;;;64.83;6.33;;;;;;;4.64;100.00;96902.09;5089191;28;20625;-63
2021/12/24 11:17:50;;;;;;;72.60;8.10;;;;;;;5.08;100.00;96895.59;5081037;28;20682;-63
2021/12/24 11:20:17;;;;;;;50.53;6.10;;;;;;;4.93;100.00;96919.28;5089115;28;20610;-63
2021/12/24 11:22:55;;;;;;;77.70;8.50;;;;;;;5.26;100.00;96905.78;5088973;28;20695;-63
2021/12/24 11:25:23;;;;;;;29.83;4.43;;;;;;;4.49;100.00;96902.72;5089319;28;20601;-62
2021/12/24 11:27:51;;;;;;;63.07;6.37;;;;;;;4.92;100.00;96901.81;5081340;28;20613;-62
2021/12/24 11:30:18;;;;;;;97.20;8.40;;;;;;;5.05;100.00;96900.59;5089110;28;20593;-63
2021/12/24 11:32:46;;;;;;;43.80;6.07;;;;;;;5.32;100.00;96888.13;5089163;28;20610;-63
2021/12/24 11:35:14;;;;;;;51.27;5.97;;;;;;;5.04;100.00;96904.31;5089197;28;20621;-63
2021/12/24 11:37:44;;;;;;;103.87;8.23;;;;;;;3.94;100.00;96894.94;5089061;28;20615;-63
2021/12/24 11:40:14;;;;;;;57.97;7.20;;;;;;;4.08;100.00;96896.19;5089239;28;20621;-64
2021/12/24 11:42:43;;;;;;;81.10;8.83;;;;;;;4.81;100.00;96884.25;5088863;28;20641;-63
2021/12/24 11:45:10;;;;;;;36.47;5.77;;;;;;;5.05;100.00;96900.59;5088977;28;20632;-63
2021/12/24 11:47:37;;;;;;;117.77;8.80;;;;;;;4.75;100.00;96885.25;5088775;28;20621;-64
2021/12/24 11:50:05;;;;;;;74.43;7.33;;;;;;;4.82;100.00;96891.16;5089031;28;20606;-64
2021/12/24 11:52:32;;;;;;;35.50;5.03;;;;;;;4.95;100.00;96885.47;5089036;28;20613;-64
2021/12/24 11:54:59;;;;;;;100.87;8.77;;;;;;;5.19;100.00;96884.06;5088995;28;21013;-63
2021/12/24 11:57:28;;;;;;;58.13;6.50;;;;;;;5.21;100.00;96884.59;5088987;28;20605;-63
2021/12/24 11:59:54;;;;;;;41.40;6.37;;;;;;;4.21;100.00;96879.16;5088919;28;20650;-63
2021/12/24 12:02:45;;;;;;;63.10;6.77;;;;;;;4.99;100.00;96891.81;5088856;28;20597;-63
2021/12/24 12:05:22;;;;;;;47.13;6.03;;;;;;;4.15;100.00;96886.22;5073595;28;20640;-63
2021/12/24 12:07:50;;;;;;;61.77;7.60;;;;;;;4.64;100.00;96878.28;5088810;28;20612;-63
2021/12/24 12:10:49;;;;;;;69.37;7.00;;;;;;;4.50;100.00;96883.16;5088793;28;20609;-63
2021/12/24 12:13:43;;;;;;;42.80;7.77;;;;;;;4.82;100.00;96875.28;5084354;28;20597;-63
2021/12/24 12:16:11;;;;;;;46.70;6.77;;;;;;;4.08;100.00;96875.06;5083370;28;20606;-63
2021/12/24 12:18:48;;;;;;;25.83;4.40;;;;;;;4.78;100.00;96875.00;5092828;28;20612;-62
2021/12/24 12:21:23;;;;;;;65.90;6.90;;;;;;;4.79;100.00;96881.09;5092703;28;20644;-63
2021/12/24 12:26:35;;;;;;;69.67;7.97;;;;;;;5.14;100.00;96867.31;5061330;28;20680;-63
2021/12/24 12:29:28;;;;;;;44.57;6.00;;;;;;;5.31;100.00;96871.44;5092649;28;20676;-63
2021/12/24 12:32:01;;;;;;;41.27;6.07;;;;;;;5.55;100.00;96869.19;5084704;28;20635;-63
2021/12/24 12:34:56;;;;;;;50.93;5.90;;;;;;;5.41;100.00;96857.47;5092091;28;20627;-63
2021/12/24 12:37:24;;;;;;;100.10;8.23;;;;;;;5.66;100.00;96864.78;5092016;28;21028;-62
2021/12/24 12:39:53;;;;;;;28.83;4.50;;;;;;;5.59;100.00;96859.69;5084383;28;20635;-63
2021/12/24 12:42:21;;;;;;;61.57;6.67;;;;;;;5.21;100.00;96858.13;5092041;28;20597;-63